createdAt,value
2022-12-23T00:03:34.144Z,0.86
2022-12-23T00:06:01.504Z,0.77
2022-12-23T00:08:28.395Z,0.59
2022-12-23T00:10:57.505Z,0.37
2022-12-23T00:13:43.147Z,0.34
2022-12-23T00:16:14.773Z,0.44
2022-12-23T00:18:42.822Z,0.24
2022-12-23T00:21:13.236Z,0.38
2022-12-23T00:23:43.405Z,0.18
2022-12-23T00:26:36.389Z,0.23
2022-12-23T00:29:03.261Z,0.13
2022-12-23T00:31:30.041Z,0.15
2022-12-23T00:33:56.835Z,0.17
2022-12-23T00:36:28.987Z,0.38
2022-12-23T00:39:16.343Z,0.32
2022-12-23T00:42:02.110Z,0.50
2022-12-23T00:44:28.926Z,0.65
2022-12-23T00:46:55.894Z,0.60
2022-12-23T00:49:41.340Z,0.67
2022-12-23T00:52:12.241Z,0.77
2022-12-23T00:54:39.430Z,0.80
2022-12-23T00:57:06.234Z,1.01
2022-12-23T00:59:34.311Z,1.01
2022-12-23T01:02:20.468Z,0.98
2022-12-23T01:05:06.289Z,0.93
2022-12-23T01:07:33.124Z,0.94
2022-12-23T01:09:59.908Z,0.99
2022-12-23T01:12:26.680Z,1.05
2022-12-23T01:14:59.371Z,1.15
2022-12-23T01:17:26.127Z,1.11
2022-12-23T01:19:53.015Z,0.96
2022-12-23T01:22:19.745Z,1.14
2022-12-23T01:24:46.518Z,1.24
2022-12-23T01:27:13.340Z,1.27
2022-12-23T01:29:40.152Z,1.32
2022-12-23T01:32:07.646Z,1.50
2022-12-23T01:34:37.113Z,1.46
2022-12-23T01:37:05.117Z,1.59
2022-12-23T01:39:31.899Z,1.50
2022-12-23T01:42:17.100Z,1.47
2022-12-23T01:44:53.023Z,1.45
2022-12-23T01:47:45.850Z,1.54
2022-12-23T01:50:37.544Z,1.50
2022-12-23T01:53:33.318Z,1.43
2022-12-23T01:56:08.920Z,1.35
2022-12-23T01:58:40.307Z,1.29
2022-12-23T02:01:26.712Z,1.27
2022-12-23T02:03:58.024Z,1.59
2022-12-23T02:06:55.689Z,1.47
2022-12-23T02:09:28.784Z,1.42
2022-12-23T02:12:37.521Z,1.44
2022-12-23T02:15:32.042Z,1.45
2022-12-23T02:18:10.974Z,1.54
2022-12-23T02:21:15.221Z,1.48
2022-12-23T02:23:56.932Z,1.47
2022-12-23T02:26:57.641Z,1.55
2022-12-23T02:29:51.081Z,1.68
2022-12-23T02:32:37.396Z,1.42
2022-12-23T02:35:22.847Z,1.71
2022-12-23T02:38:10.076Z,1.56
2022-12-23T02:40:41.575Z,1.45
2022-12-23T02:43:14.135Z,1.45
2022-12-23T02:45:55.012Z,1.42
2022-12-23T02:48:35.037Z,1.45
2022-12-23T02:51:02.795Z,1.35
2022-12-23T02:53:38.107Z,1.67
2022-12-23T02:56:08.966Z,1.59
2022-12-23T02:58:41.769Z,1.93
2022-12-23T03:01:11.482Z,1.88
2022-12-23T03:03:40.441Z,1.90
2022-12-23T03:06:19.806Z,1.69
2022-12-23T03:08:47.616Z,1.83
2022-12-23T03:11:16.238Z,1.74
2022-12-23T03:14:11.522Z,1.78
2022-12-23T03:16:56.394Z,1.92
2022-12-23T03:19:38.800Z,1.72
2022-12-23T03:22:17.583Z,1.91
2022-12-23T03:25:16.391Z,1.71
2022-12-23T03:27:59.503Z,1.85
2022-12-23T03:30:27.857Z,1.71
2022-12-23T03:33:13.753Z,1.66
2022-12-23T03:35:45.628Z,1.80
2022-12-23T03:38:16.386Z,1.86
2022-12-23T03:40:48.182Z,1.82
2022-12-23T03:43:50.351Z,1.73
2022-12-23T03:46:28.297Z,1.56
2022-12-23T03:49:00.888Z,1.56
2022-12-23T03:51:34.192Z,1.53
2022-12-23T03:54:17.840Z,1.44
2022-12-23T03:56:51.407Z,1.47
2022-12-23T03:59:23.734Z,1.61
2022-12-23T04:02:02.751Z,1.63
2022-12-23T04:05:17.491Z,1.63
2022-12-23T04:08:08.834Z,1.59
2022-12-23T04:10:35.894Z,1.60
2022-12-23T04:13:02.733Z,1.64
2022-12-23T04:15:30.048Z,1.93
2022-12-23T04:17:58.074Z,1.66
2022-12-23T04:20:25.280Z,1.75
2022-12-23T04:22:52.098Z,1.67
2022-12-23T04:25:18.989Z,1.80
2022-12-23T04:27:45.806Z,1.74
2022-12-23T04:30:16.580Z,1.86
2022-12-23T04:32:43.611Z,1.75
2022-12-23T04:35:11.440Z,1.75
2022-12-23T04:37:38.952Z,1.72
2022-12-23T04:40:06.862Z,1.96
2022-12-23T04:42:33.716Z,1.85
2022-12-23T04:45:00.465Z,1.77
2022-12-23T04:47:27.571Z,1.61
2022-12-23T04:49:54.483Z,1.77
2022-12-23T04:52:21.276Z,1.68
2022-12-23T04:54:48.189Z,1.56
2022-12-23T04:57:16.238Z,1.58
2022-12-23T04:59:43.259Z,1.59
2022-12-23T05:02:10.493Z,1.59
2022-12-23T05:04:37.616Z,1.71
2022-12-23T05:07:04.455Z,1.72
2022-12-23T05:09:31.288Z,1.87
2022-12-23T05:11:58.199Z,1.86
2022-12-23T05:14:24.950Z,2.01
2022-12-23T05:16:51.810Z,1.79
2022-12-23T05:19:18.636Z,1.68
2022-12-23T05:21:45.486Z,1.66
2022-12-23T05:24:12.309Z,1.87
2022-12-23T05:26:39.108Z,1.85
2022-12-23T05:29:06.259Z,1.77
2022-12-23T05:31:33.348Z,1.74
2022-12-23T05:34:06.557Z,1.83
2022-12-23T05:36:33.802Z,1.87
2022-12-23T05:39:00.599Z,2.05
2022-12-23T05:41:27.375Z,1.96
2022-12-23T05:43:54.268Z,1.85
2022-12-23T05:46:26.244Z,1.84
2022-12-23T05:48:53.874Z,1.73
2022-12-23T05:51:20.784Z,1.82
2022-12-23T05:53:48.648Z,1.93
2022-12-23T05:56:15.377Z,1.90
2022-12-23T05:58:42.127Z,1.98
2022-12-23T06:01:09.034Z,1.98
2022-12-23T06:03:35.957Z,1.87
2022-12-23T06:06:03.038Z,1.99
2022-12-23T06:08:30.072Z,1.71
2022-12-23T06:10:56.914Z,1.68
2022-12-23T06:13:23.814Z,1.48
2022-12-23T06:15:50.652Z,1.68
2022-12-23T06:18:17.617Z,1.89
2022-12-23T06:20:48.084Z,1.63
2022-12-23T06:23:14.870Z,1.71
2022-12-23T06:25:41.713Z,1.73
2022-12-23T06:28:08.618Z,1.90
2022-12-23T06:30:35.400Z,1.99
2022-12-23T06:33:02.390Z,1.68
2022-12-23T06:35:29.220Z,1.72
2022-12-23T06:37:56.018Z,1.72
2022-12-23T06:40:22.884Z,1.58
2022-12-23T06:42:49.824Z,1.64
2022-12-23T06:45:16.684Z,1.58
2022-12-23T06:47:43.534Z,1.58
2022-12-23T06:50:10.708Z,1.91
2022-12-23T06:52:37.545Z,1.69
2022-12-23T06:55:04.706Z,1.98
2022-12-23T06:57:31.507Z,2.01
2022-12-23T06:59:58.255Z,1.80
2022-12-23T07:02:25.204Z,1.83
2022-12-23T07:04:52.038Z,1.90
2022-12-23T07:07:18.873Z,1.97
2022-12-23T07:09:45.653Z,2.07
2022-12-23T07:12:12.389Z,2.13
2022-12-23T07:14:39.189Z,2.14
2022-12-23T07:17:05.999Z,2.10
2022-12-23T07:19:32.849Z,2.28
2022-12-23T07:21:59.597Z,2.32
2022-12-23T07:24:26.325Z,2.50
2022-12-23T07:26:53.111Z,2.66
2022-12-23T07:29:19.825Z,2.67
2022-12-23T07:31:46.616Z,2.65
2022-12-23T07:34:13.421Z,2.70
2022-12-23T07:36:40.213Z,2.75
2022-12-23T07:39:07.112Z,2.80
2022-12-23T07:41:33.923Z,2.78
2022-12-23T07:44:00.657Z,2.89
2022-12-23T07:46:27.591Z,2.97
2022-12-23T07:48:54.388Z,2.86
2022-12-23T07:51:21.133Z,2.96
2022-12-23T07:53:51.338Z,3.11
2022-12-23T07:56:18.336Z,3.34
2022-12-23T07:58:52.584Z,3.42
2022-12-23T08:01:20.091Z,3.65
2022-12-23T08:03:47.435Z,3.70
2022-12-23T08:06:16.279Z,3.87
2022-12-23T08:08:46.051Z,4.01
2022-12-23T08:11:15.616Z,3.90
2022-12-23T08:13:45.028Z,3.90
2022-12-23T08:16:12.196Z,3.84
2022-12-23T08:18:41.783Z,3.71
2022-12-23T08:21:11.884Z,3.78
2022-12-23T08:23:38.672Z,3.83
2022-12-23T08:26:06.793Z,3.88
2022-12-23T08:28:34.575Z,4.05
2022-12-23T08:31:13.569Z,3.98
2022-12-23T08:33:42.322Z,4.12
2022-12-23T08:36:16.113Z,4.22
2022-12-23T08:38:45.916Z,4.23
2022-12-23T08:41:25.405Z,4.28
2022-12-23T08:43:52.837Z,4.39
2022-12-23T08:46:20.412Z,4.35
2022-12-23T08:48:49.840Z,4.38
2022-12-23T08:51:18.390Z,4.52
2022-12-23T08:53:46.078Z,4.57
2022-12-23T08:56:18.817Z,4.71
2022-12-23T08:58:47.476Z,4.64
2022-12-23T09:01:16.892Z,4.84
2022-12-23T09:03:45.091Z,4.94
2022-12-23T09:06:29.048Z,5.01
2022-12-23T09:08:56.590Z,5.00
2022-12-23T09:11:25.691Z,5.11
2022-12-23T09:13:52.863Z,5.23
2022-12-23T09:16:20.250Z,5.30
2022-12-23T09:18:47.167Z,5.37
2022-12-23T09:21:18.096Z,5.52
2022-12-23T09:23:45.287Z,5.68
2022-12-23T09:26:18.854Z,5.73
2022-12-23T09:28:45.681Z,5.70
2022-12-23T09:31:13.484Z,5.83
2022-12-23T09:33:40.495Z,5.80
2022-12-23T09:36:07.658Z,5.80
2022-12-23T09:38:34.718Z,5.93
2022-12-23T09:41:30.750Z,5.87
2022-12-23T09:44:15.984Z,5.95
2022-12-23T09:46:51.831Z,5.95
2022-12-23T09:49:21.476Z,5.71
2022-12-23T09:51:51.036Z,5.89
2022-12-23T09:54:29.854Z,5.79
2022-12-23T09:57:08.883Z,5.81
2022-12-23T09:59:44.937Z,5.88
2022-12-23T10:02:19.386Z,5.77
2022-12-23T10:05:12.961Z,5.74
2022-12-23T10:07:50.252Z,5.81
2022-12-23T10:10:29.148Z,5.87
2022-12-23T10:12:58.285Z,5.85
2022-12-23T10:15:35.367Z,6.15
2022-12-23T10:18:20.277Z,6.22
2022-12-23T10:21:21.124Z,6.26
2022-12-23T10:23:52.304Z,6.32
2022-12-23T10:26:30.064Z,6.51
2022-12-23T10:29:15.447Z,6.50
2022-12-23T10:32:11.924Z,6.47
2022-12-23T10:34:50.557Z,6.46
2022-12-23T10:37:34.948Z,6.57
2022-12-23T10:40:30.606Z,6.57
2022-12-23T10:43:11.686Z,6.54
2022-12-23T10:45:44.143Z,6.51
2022-12-23T10:48:23.200Z,6.54
2022-12-23T10:51:19.295Z,6.68
2022-12-23T10:54:13.135Z,6.84
2022-12-23T10:56:40.447Z,7.08
2022-12-23T10:59:14.263Z,6.92
2022-12-23T11:01:43.291Z,6.87
2022-12-23T11:04:32.926Z,6.88
2022-12-23T11:07:34.481Z,7.25
2022-12-23T11:10:01.908Z,7.47
2022-12-23T11:12:47.752Z,7.72
2022-12-23T11:15:36.416Z,8.07
2022-12-23T11:18:12.578Z,8.16
2022-12-23T11:20:41.597Z,8.34
2022-12-23T11:23:25.539Z,8.48
2022-12-23T11:26:01.965Z,8.43
2022-12-23T11:28:29.783Z,8.64
2022-12-23T11:31:08.808Z,8.92
2022-12-23T11:33:39.830Z,8.85
2022-12-23T11:36:08.817Z,9.03
2022-12-23T11:38:38.128Z,9.02
2022-12-23T11:41:05.395Z,8.92
2022-12-23T11:43:33.913Z,8.91
2022-12-23T11:46:28.719Z,8.86
2022-12-23T11:49:20.229Z,8.93
2022-12-23T11:52:09.112Z,8.81
2022-12-23T11:54:35.915Z,8.81
2022-12-23T11:57:08.289Z,8.94
2022-12-23T11:59:51.278Z,8.81
2022-12-23T12:02:36.521Z,8.84
2022-12-23T12:05:37.486Z,8.68
2022-12-23T12:08:10.865Z,8.66
2022-12-23T12:10:40.414Z,8.84
2022-12-23T12:13:38.172Z,9.07
2022-12-23T12:16:24.355Z,9.07
2022-12-23T12:18:55.827Z,9.10
2022-12-23T12:21:30.582Z,9.11
2022-12-23T12:24:20.264Z,9.06
2022-12-23T12:26:51.564Z,9.20
2022-12-23T12:29:41.342Z,9.44
2022-12-23T12:32:19.677Z,9.48
2022-12-23T12:34:52.600Z,9.60
2022-12-23T12:37:32.144Z,9.46
2022-12-23T12:40:03.822Z,9.30
2022-12-23T12:42:38.061Z,9.45
2022-12-23T12:45:19.975Z,9.47
2022-12-23T12:48:16.379Z,9.44
2022-12-23T12:51:10.262Z,9.19
2022-12-23T12:53:42.843Z,9.34
2022-12-23T12:56:22.761Z,9.16
2022-12-23T12:58:49.553Z,9.29
2022-12-23T13:01:30.939Z,9.22
2022-12-23T13:04:05.624Z,9.12
2022-12-23T13:06:41.854Z,9.07
2022-12-23T13:09:27.128Z,9.09
2022-12-23T13:11:56.737Z,9.09
2022-12-23T13:14:46.915Z,8.89
2022-12-23T13:17:23.347Z,8.77
2022-12-23T13:20:13.283Z,8.68
2022-12-23T13:22:40.218Z,8.63
2022-12-23T13:25:18.975Z,8.51
2022-12-23T13:28:01.964Z,8.57
2022-12-23T13:30:36.608Z,8.39
2022-12-23T13:33:26.886Z,8.23
2022-12-23T13:36:12.234Z,8.36
2022-12-23T13:38:58.490Z,8.25
2022-12-23T13:41:44.947Z,8.13
2022-12-23T13:44:15.540Z,8.50
2022-12-23T13:47:09.765Z,8.47
2022-12-23T13:50:00.200Z,8.45
2022-12-23T13:52:57.400Z,8.34
2022-12-23T13:55:33.404Z,8.20
2022-12-23T13:58:20.399Z,8.21
2022-12-23T14:00:56.412Z,8.09
2022-12-23T14:03:25.356Z,7.91
2022-12-23T14:05:53.441Z,7.98
2022-12-23T14:08:22.864Z,8.07
2022-12-23T14:11:14.299Z,8.09
2022-12-23T14:13:50.149Z,8.08
2022-12-23T14:17:07.401Z,8.02
2022-12-23T14:19:47.496Z,7.86
2022-12-23T14:22:28.594Z,7.86
2022-12-23T14:25:08.900Z,7.84
2022-12-23T14:27:54.456Z,7.94
2022-12-23T14:30:41.346Z,8.04
2022-12-23T14:33:16.152Z,8.12
2022-12-23T14:35:43.184Z,8.14
2022-12-23T14:38:16.036Z,7.99
2022-12-23T14:40:42.917Z,7.88
2022-12-23T14:43:21.937Z,7.77
2022-12-23T14:45:51.486Z,7.75
2022-12-23T14:48:37.149Z,7.75
2022-12-23T14:51:32.379Z,7.74
2022-12-23T14:53:59.174Z,7.81
2022-12-23T14:56:51.564Z,7.73
2022-12-23T14:59:31.778Z,7.91
2022-12-23T15:02:18.211Z,7.70
2022-12-23T15:04:55.946Z,7.65
2022-12-23T15:07:29.720Z,7.26
2022-12-23T15:10:01.362Z,7.62
2022-12-23T15:12:33.176Z,7.80
2022-12-23T15:15:14.534Z,7.61
2022-12-23T15:17:41.979Z,7.70
2022-12-23T15:20:22.305Z,7.65
2022-12-23T15:22:49.592Z,7.49
2022-12-23T15:25:25.195Z,7.51
2022-12-23T15:27:59.327Z,7.30
2022-12-23T15:30:34.127Z,7.25
2022-12-23T15:33:06.424Z,7.17
2022-12-23T15:35:43.435Z,7.14
2022-12-23T15:38:14.897Z,7.18
2022-12-23T15:40:41.832Z,7.19
2022-12-23T15:43:19.847Z,7.12
2022-12-23T15:45:46.659Z,7.03
2022-12-23T15:48:29.224Z,6.98
2022-12-23T15:51:07.032Z,6.97
2022-12-23T15:53:37.730Z,7.04
2022-12-23T15:56:08.878Z,7.10
2022-12-23T15:58:40.456Z,7.22
2022-12-23T16:01:13.418Z,7.20
2022-12-23T16:03:42.950Z,7.06
2022-12-23T16:06:24.411Z,7.09
2022-12-23T16:09:16.835Z,7.06
2022-12-23T16:12:19.700Z,7.05
2022-12-23T16:14:59.270Z,7.01
2022-12-23T16:17:32.601Z,7.04
2022-12-23T16:20:40.599Z,7.05
2022-12-23T16:23:10.821Z,6.97
2022-12-23T16:25:38.754Z,7.07
2022-12-23T16:28:11.646Z,7.01
2022-12-23T16:30:41.949Z,6.97
2022-12-23T16:33:44.666Z,6.83
2022-12-23T16:36:32.476Z,6.79
2022-12-23T16:38:59.285Z,6.93
2022-12-23T16:41:26.066Z,6.97
2022-12-23T16:43:53.243Z,6.78
2022-12-23T16:46:22.442Z,6.69
2022-12-23T16:48:52.121Z,6.66
2022-12-23T16:51:20.974Z,6.56
2022-12-23T16:53:48.950Z,6.72
2022-12-23T16:56:18.457Z,6.82
2022-12-23T16:58:45.685Z,6.31
2022-12-23T17:01:22.088Z,6.81
2022-12-23T17:03:49.308Z,6.60
2022-12-23T17:06:17.439Z,6.61
2022-12-23T17:08:44.258Z,6.79
2022-12-23T17:11:23.698Z,6.71
2022-12-23T17:13:50.748Z,6.68
2022-12-23T17:16:20.345Z,6.26
2022-12-23T17:18:51.579Z,6.37
2022-12-23T17:21:26.240Z,6.68
2022-12-23T17:23:54.687Z,6.30
2022-12-23T17:26:21.510Z,6.19
2022-12-23T17:28:48.460Z,6.51
2022-12-23T17:31:22.371Z,6.47
2022-12-23T17:33:53.750Z,6.42
2022-12-23T17:36:20.772Z,6.83
2022-12-23T17:38:47.663Z,6.69
2022-12-23T17:41:29.976Z,6.71
2022-12-23T17:43:57.345Z,6.91
2022-12-23T17:46:25.054Z,6.86
2022-12-23T17:48:52.670Z,6.89
2022-12-23T17:51:22.849Z,6.73
2022-12-23T17:53:56.968Z,6.90
2022-12-23T17:56:26.707Z,6.50
2022-12-23T17:58:54.083Z,6.55
2022-12-23T18:01:27.185Z,6.70
2022-12-23T18:03:56.555Z,6.79
2022-12-23T18:06:26.466Z,6.33
2022-12-23T18:08:53.406Z,6.19
2022-12-23T18:11:33.822Z,6.69
2022-12-23T18:14:01.594Z,6.39
2022-12-23T18:16:28.600Z,6.39
2022-12-23T18:18:55.730Z,6.25
2022-12-23T18:21:29.485Z,6.50
2022-12-23T18:23:59.972Z,6.50
2022-12-23T18:26:26.913Z,6.16
2022-12-23T18:28:54.588Z,6.54
2022-12-23T18:31:27.450Z,6.56
2022-12-23T18:33:55.060Z,6.23
2022-12-23T18:36:28.154Z,6.12
2022-12-23T18:38:55.149Z,6.44
2022-12-23T18:41:22.404Z,6.44
2022-12-23T18:43:49.389Z,6.51
2022-12-23T18:46:17.131Z,6.56
2022-12-23T18:48:44.122Z,6.34
2022-12-23T18:51:14.844Z,6.28
2022-12-23T18:53:43.697Z,6.53
2022-12-23T18:56:15.441Z,6.50
2022-12-23T18:58:42.773Z,6.53
2022-12-23T19:01:14.189Z,6.64
2022-12-23T19:03:41.688Z,6.52
2022-12-23T19:06:10.378Z,6.36
2022-12-23T19:08:38.277Z,6.36
2022-12-23T19:11:20.622Z,6.44
2022-12-23T19:13:48.014Z,6.45
2022-12-23T19:16:17.471Z,6.41
2022-12-23T19:18:45.834Z,6.54
2022-12-23T19:21:13.000Z,6.40
2022-12-23T19:23:41.458Z,6.16
2022-12-23T19:26:13.907Z,6.50
2022-12-23T19:28:41.932Z,6.52
2022-12-23T19:31:13.879Z,6.42
2022-12-23T19:33:42.874Z,6.52
2022-12-23T19:36:11.072Z,6.43
2022-12-23T19:38:38.743Z,6.56
2022-12-23T19:41:07.410Z,6.50
2022-12-23T19:43:38.738Z,6.67
2022-12-23T19:46:09.867Z,6.55
2022-12-23T19:48:37.419Z,6.46
2022-12-23T19:51:10.302Z,6.55
2022-12-23T19:53:39.310Z,6.62
2022-12-23T19:56:12.416Z,6.60
2022-12-23T19:58:42.263Z,6.54
2022-12-23T20:01:18.784Z,6.61
2022-12-23T20:03:47.957Z,6.26
2022-12-23T20:06:18.257Z,6.57
2022-12-23T20:08:45.575Z,6.53
2022-12-23T20:11:14.918Z,6.60
2022-12-23T20:13:41.759Z,6.46
2022-12-23T20:16:09.877Z,6.43
2022-12-23T20:18:37.483Z,6.57
2022-12-23T20:21:04.758Z,6.30
2022-12-23T20:23:32.296Z,6.48
2022-12-23T20:25:59.285Z,6.42
2022-12-23T20:28:26.451Z,6.27
2022-12-23T20:31:29.073Z,6.21
2022-12-23T20:33:57.307Z,6.18
2022-12-23T20:36:26.719Z,6.24
2022-12-23T20:38:53.871Z,6.42
2022-12-23T20:41:24.241Z,6.21
2022-12-23T20:44:31.839Z,6.15
2022-12-23T20:46:39.025Z,6.33
2022-12-23T20:49:06.161Z,6.30
2022-12-23T20:51:33.319Z,6.23
2022-12-23T20:54:01.042Z,6.00
2022-12-23T20:56:30.458Z,6.05
2022-12-23T20:58:59.624Z,6.08
2022-12-23T21:01:33.058Z,6.15
2022-12-23T21:04:02.394Z,6.39
2022-12-23T21:06:31.105Z,6.37
2022-12-23T21:08:59.963Z,6.34
2022-12-23T21:11:32.124Z,6.40
2022-12-23T21:14:06.300Z,6.12
2022-12-23T21:16:34.914Z,6.02
2022-12-23T21:19:02.140Z,5.95
2022-12-23T21:21:31.273Z,6.05
2022-12-23T21:24:01.716Z,5.93
2022-12-23T21:26:30.987Z,6.06
2022-12-23T21:28:59.617Z,6.02
2022-12-23T21:31:27.989Z,6.14
2022-12-23T21:33:55.351Z,6.07
2022-12-23T21:36:24.507Z,6.10
2022-12-23T21:38:51.946Z,6.24
2022-12-23T21:41:25.433Z,6.19
2022-12-23T21:43:52.510Z,6.20
2022-12-23T21:46:22.004Z,6.39
2022-12-23T21:48:50.277Z,6.39
2022-12-23T21:51:22.834Z,6.32
2022-12-23T21:53:52.715Z,6.34
2022-12-23T21:56:30.514Z,6.32
2022-12-23T21:59:02.079Z,6.31
2022-12-23T22:01:29.998Z,6.24
2022-12-23T22:03:57.481Z,6.27
2022-12-23T22:06:27.485Z,6.20
2022-12-23T22:08:54.895Z,6.39
2022-12-23T22:11:24.583Z,6.21
2022-12-23T22:13:52.199Z,6.34
2022-12-23T22:16:21.966Z,6.24
2022-12-23T22:18:49.918Z,6.27
2022-12-23T22:21:20.578Z,6.35
2022-12-23T22:23:48.396Z,6.33
2022-12-23T22:26:24.061Z,6.55
2022-12-23T22:28:52.468Z,6.54
2022-12-23T22:31:25.786Z,6.48
2022-12-23T22:33:52.587Z,6.43
2022-12-23T22:36:19.422Z,6.48
2022-12-23T22:38:56.768Z,6.51
2022-12-23T22:41:24.812Z,6.43
2022-12-23T22:43:51.742Z,6.83
2022-12-23T22:46:19.057Z,7.03
2022-12-23T22:48:46.342Z,7.05
2022-12-23T22:51:16.137Z,7.23
2022-12-23T22:53:43.295Z,7.01
2022-12-23T22:56:13.366Z,7.45
2022-12-23T22:58:40.073Z,7.49
2022-12-23T23:01:17.754Z,7.75
2022-12-23T23:03:44.469Z,7.77
2022-12-23T23:06:11.785Z,7.82
2022-12-23T23:08:38.635Z,7.88
2022-12-23T23:11:05.640Z,7.91
2022-12-23T23:13:35.297Z,8.21
2022-12-23T23:16:02.875Z,8.40
2022-12-23T23:18:30.570Z,8.49
2022-12-23T23:20:57.576Z,8.37
2022-12-23T23:23:24.429Z,8.27
2022-12-23T23:25:51.392Z,8.39
2022-12-23T23:28:18.493Z,8.27
2022-12-23T23:30:45.228Z,8.21
2022-12-23T23:33:12.667Z,8.34
2022-12-23T23:35:39.589Z,8.37
2022-12-23T23:38:06.361Z,8.25
2022-12-23T23:40:33.294Z,8.22
2022-12-23T23:43:00.203Z,8.19
2022-12-23T23:45:27.663Z,8.22
2022-12-23T23:47:55.273Z,8.22
2022-12-23T23:50:22.123Z,8.11
2022-12-23T23:52:48.879Z,8.21
2022-12-23T23:55:15.689Z,8.18
2022-12-23T23:57:42.467Z,8.12
